Flight Track Log - Related Links

Times and Time Zones

All times are in EST time to prevent confusion due to time zone crossing. See the FSR411 flight status page for this flight to view local times or setup timezone preferences in your user account.

Time Position Orientation Groundspeed Altitude Reporting Facility
EST Latitude Longitude Course Direction KTS MPH feet Rate Location/Type
Sun 11:15:40 AM 39.9733 -88.2331 159° South 214 246 41,000  Level Kansas City Center
Sun 11:16:42 AM 39.9117 -88.1969 156° South 262 302 6,200 -20,813 Descending Kansas City Center
Sun 11:17:16 AM 39.8686 -88.1800 163° South 297 342 7,700 3,095 Climbing Indianapolis Center
Sun 11:18:17 AM 39.7708 -88.1333 160° South 311 358 11,100 2,927 Climbing Indianapolis Center
Sun 11:19:19 AM 39.6728 -88.0892 161° South 363 418 13,700 2,855 Climbing Indianapolis Center
Sun 11:20:00 AM 38.9256 -87.7628 159° South  Level FlightAware Approximate
Sun 11:20:21 AM 39.5672 -88.0392 160° South 396 456 17,000  Level Indianapolis Center
Sun 11:21:22 AM 39.4556 -87.9881 161° South 416 479 20,400 3,171 Climbing Indianapolis Center
Sun 11:22:24 AM 39.3419 -87.9353 160° South 427 491 23,500 2,780 Climbing Indianapolis Center
Sun 11:23:25 AM 39.2267 -87.8842 161° South 436 502 26,100 2,341 Climbing Indianapolis Center
Sun 11:24:27 AM 39.1103 -87.8308 160° South 443 510 28,300 2,081 Climbing Indianapolis Center
Sun 11:25:29 AM 38.9917 -87.7769 161° South 449 517 30,400 2,195 Climbing Indianapolis Center
Sun 11:26:30 AM 38.8506 -87.7133 161° South 447 514 32,800 2,146 Climbing Indianapolis Center
Sun 11:27:32 AM 38.7322 -87.6611 161° South 448 516 34,800 1,756 Climbing Indianapolis Center
Sun 11:28:33 AM 38.6175 -87.6100 161° South 439 505 36,400 1,512 Climbing Indianapolis Center
Sun 11:29:35 AM 38.5036 -87.5594 161° South 434 499 37,900 1,317 Climbing Indianapolis Center
Sun 11:30:36 AM 38.3917 -87.5086 160° South 430 495 39,100 976 Climbing Indianapolis Center
Sun 11:31:38 AM 38.2797 -87.4600 161° South 429 494 39,900 732 Climbing Indianapolis Center
Sun 11:32:39 AM 38.1667 -87.4100 161° South 432 497 40,600 537 Climbing Indianapolis Center
Sun 11:33:41 AM 38.0289 -87.3492 161° South 439 505 41,000 195 Climbing Indianapolis Center
Sun 11:34:42 AM 37.9094 -87.2972 161° South 451 519 41,000  Level Indianapolis Center
Sun 11:35:44 AM 37.7853 -87.2433 161° South 469 540 41,000  Level Indianapolis Center
Sun 11:36:45 AM 37.6589 -87.1889 161° South 477 549 41,000  Level Indianapolis Center
Sun 11:37:47 AM 37.5328 -87.1325 160° South 479 551 41,000  Level Indianapolis Center
Sun 11:38:48 AM 37.4117 -87.0839 162° South 471 542 41,000  Level Indianapolis Center
Sun 11:39:49 AM 37.2883 -87.0300 161° South 467 537 41,000  Level Indianapolis Center
Sun 11:40:51 AM 37.1444 -86.9686 161° South 463 533 41,000  Level Indianapolis Center
Sun 11:41:38 AM 37.0631 -86.9308 160° South 461 531 41,000  Level Memphis Center
Sun 11:42:40 AM 36.9386 -86.8783 161° South 464 534 41,000  Level Memphis Center
Sun 11:43:41 AM 36.8136 -86.8253 161° South 468 539 41,000  Level Memphis Center
Sun 11:44:43 AM 36.6869 -86.7719 161° South 472 543 41,000  Level Memphis Center
Sun 11:45:45 AM 36.5389 -86.7089 161° South 474 545 41,000  Level Memphis Center
Sun 11:46:47 AM 36.4100 -86.6542 161° South 476 548 41,000  Level Memphis Center
Sun 11:47:49 AM 36.2800 -86.6006 162° South 479 551 41,000  Level Memphis Center
Sun 11:48:51 AM 36.1517 -86.5475 162° South 477 549 41,000  Level Memphis Center
Sun 11:49:53 AM 36.0258 -86.4967 162° South 471 542 41,000  Level Memphis Center
Sun 11:50:55 AM 35.9008 -86.4442 161° South 469 540 41,000  Level Memphis Center
Sun 11:51:56 AM 35.7764 -86.3939 162° South 467 537 41,000  Level Memphis Center
Sun 11:52:58 AM 35.6544 -86.3436 161° South 461 531 41,000  Level Memphis Center
Sun 11:54:00 AM 35.5328 -86.2922 161° South 458 527 41,000  Level Memphis Center
Sun 11:55:02 AM 35.4086 -86.2428 162° South 462 532 41,000  Level Memphis Center
Sun 11:56:04 AM 35.2881 -86.1919 161° South 461 531 41,000  Level Memphis Center
Sun 11:57:06 AM 35.1408 -86.1322 162° South 464 534 41,000  Level Memphis Center
Sun 11:58:08 AM 35.0181 -86.0833 162° South 464 534 41,000  Level Memphis Center
Sun 11:59:10 AM 34.8950 -86.0333 162° South 465 535 41,000  Level Memphis Center
Sun 12:00:15 PM 34.7661 -85.9806 161° South 465 535 41,000 144 Level Atlanta Center
Sun 12:01:15 PM 34.6458 -85.9300 161° South 465 535 41,300 500 Climbing Atlanta Center
Sun 12:02:15 PM 34.5214 -85.8817 162° South 465 535 42,000 750 Climbing Atlanta Center
Sun 12:03:15 PM 34.3989 -85.8311 161° South 465 535 42,800 500 Climbing Atlanta Center
Sun 12:04:15 PM 34.2786 -85.7886 164° South 453 521 43,000 100 Climbing Atlanta Center
Sun 12:05:15 PM 34.1603 -85.7408 162° South 453 521 43,000  Level Atlanta Center
Sun 12:06:15 PM 34.0275 -85.6881 162° South 462 532 43,000  Level Atlanta Center
Sun 12:07:15 PM 33.9028 -85.6406 162° South 462 532 43,000  Level Atlanta Center
Sun 12:08:15 PM 33.7803 -85.5933 162° South 462 532 43,000  Level Atlanta Center
Sun 12:09:15 PM 33.6578 -85.5461 162° South 457 526 43,000  Level Atlanta Center
Sun 12:10:15 PM 33.5331 -85.4992 163° South 463 533 43,000 450 Level Atlanta Center
Sun 12:11:15 PM 33.4106 -85.4497 161° South 463 533 43,900 850 Climbing Atlanta Center
Sun 12:12:15 PM 33.2919 -85.4056 163° South 458 527 44,700 550 Climbing Atlanta Center
Sun 12:13:15 PM 33.1778 -85.3617 162° South 442 509 45,000 150 Climbing Atlanta Center
Sun 12:14:15 PM 33.0592 -85.3153 162° South 442 509 45,000  Level Atlanta Center
Sun 12:15:15 PM 32.9533 -85.2667 159° South 442 509 45,000  Level Atlanta Center
Sun 12:16:15 PM 32.8347 -85.2231 163° South 449 517 45,000  Level Atlanta Center
Sun 12:17:15 PM 32.7078 -85.1744 162° South 449 517 45,000  Level Atlanta Center
Sun 12:18:15 PM 32.5892 -85.1286 162° South 460 529 45,000  Level Atlanta Center
Sun 12:19:15 PM 32.4644 -85.0828 163° South 460 529 45,000  Level Atlanta Center
Sun 12:20:15 PM 32.3436 -85.0369 162° South 460 529 45,000  Level Atlanta Center
Sun 12:21:15 PM 32.2231 -84.9964 164° South 460 529 45,000  Level Atlanta Center
Sun 12:22:57 PM 32.0003 -84.9089 162° South 475 547 45,000  Level Jacksonville Center
Sun 12:23:57 PM 31.8756 -84.8594 161° South 475 547 45,000  Level Jacksonville Center
Sun 12:24:58 PM 31.7656 -84.8206 163° South 465 535 45,000  Level Jacksonville Center
Sun 12:25:58 PM 31.6411 -84.7642 159° South 465 535 45,000  Level Jacksonville Center
Sun 12:26:57 PM 31.5211 -84.6986 155° Southeast 472 543 45,000  Level Jacksonville Center
Sun 12:27:57 PM 31.3986 -84.6378 157° South 477 549 45,000  Level Jacksonville Center
Sun 12:28:57 PM 31.2764 -84.5772 157° South 477 549 45,000  Level Jacksonville Center
Sun 12:29:57 PM 31.1581 -84.5167 156° South 477 549 45,000  Level Jacksonville Center
Sun 12:30:58 PM 31.0358 -84.4564 157° South 477 549 45,000  Level Jacksonville Center
Sun 12:31:58 PM 30.9153 -84.3964 157° South 472 543 45,000  Level Jacksonville Center
Sun 12:32:58 PM 30.7950 -84.3339 156° South 472 543 45,000  Level Jacksonville Center
Sun 12:33:57 PM 30.6744 -84.2767 158° South 472 543 45,000  Level Jacksonville Center
Sun 12:34:58 PM 30.5436 -84.2072 155° Southeast 472 543 45,000  Level Jacksonville Center
Sun 12:35:57 PM 30.4378 -84.1575 158° South 467 537 45,000  Level Jacksonville Center
Sun 12:36:58 PM 30.3192 -84.0981 157° South 467 537 45,000  Level Jacksonville Center
Sun 12:37:57 PM 30.1967 -84.0414 158° South 472 543 45,000 -353 Level Jacksonville Center
Sun 12:38:57 PM 30.0761 -83.9800 156° South 472 543 44,300 -1,100 Descending Jacksonville Center
Sun 12:39:57 PM 29.9575 -83.9233 158° South 472 543 42,800 -1,488 Descending Jacksonville Center
Sun 12:40:58 PM 29.8431 -83.8647 156° South 472 543 41,300 -1,438 Descending Jacksonville Center
Sun 12:41:58 PM 29.7225 -83.8086 158° South 462 532 39,900 -1,462 Descending Jacksonville Center
Sun 12:42:57 PM 29.6081 -83.7525 157° South 462 532 38,400 -1,450 Descending Jacksonville Center
Sun 12:43:58 PM 29.4875 -83.6942 157° South 462 532 37,000 -1,438 Descending Jacksonville Center
Sun 12:44:58 PM 29.3542 -83.6289 157° South 462 532 35,500 -1,008 Descending Jacksonville Center
Sun 12:45:57 PM 29.2314 -83.5708 158° South 475 547 35,000 -250 Descending Jacksonville Center
Sun 12:46:58 PM 29.1106 -83.5106 156° South 475 547 35,000  Level Jacksonville Center
Sun 12:47:58 PM 28.9878 -83.4503 157° South 475 547 35,000  Level Jacksonville Center
Sun 12:48:57 PM 28.8669 -83.3953 158° South 475 547 35,000  Level Jacksonville Center
Sun 12:49:58 PM 28.7461 -83.3378 157° South 469 540 35,000  Level Jacksonville Center
Sun 12:50:57 PM 28.6272 -83.2781 156° South 469 540 35,000 -250 Level Jacksonville Center
Sun 12:51:58 PM 28.5083 -83.2233 158° South 469 540 34,500 -1,580 Descending Jacksonville Center
Sun 12:54:22 PM 28.2342 -83.0931 157° South 472 543 29,600 -2,059 Descending Miami Center
Sun 12:55:22 PM 28.1114 -83.0369 158° South 478 550 27,500 -1,300 Descending Miami Center
Sun 12:56:22 PM 27.9867 -82.9808 158° South 489 563 27,000 -250 Descending Miami Center
Sun 12:57:22 PM 27.8639 -82.9250 158° South 494 568 27,000  Level Miami Center
Sun 12:58:22 PM 27.7350 -82.8617 156° South 474 545 27,000  Level Miami Center
Sun 12:59:22 PM 27.6119 -82.8086 159° South 467 537 27,000 -500 Level Miami Center
Sun 01:00:22 PM 27.5097 -82.7611 158° South 461 531 26,000 -900 Descending Miami Center
Sun 01:01:22 PM 27.3867 -82.7081 159° South 461 531 25,200 -1,450 Descending Miami Center
Sun 01:02:22 PM 27.2597 -82.6478 157° South 461 531 23,100 -1,550 Descending Miami Center
Sun 01:03:22 PM 27.1644 -82.5800 148° Southeast 461 531 22,100 -2,150 Descending Miami Center
Sun 01:04:22 PM 27.0572 -82.4908 143° Southeast 447 514 18,800 -3,200 Descending Miami Center
Sun 01:05:22 PM 26.9825 -82.4292 144° Southeast 411 473 15,700 -3,250 Descending Miami Center
Sun 01:06:22 PM 26.8972 -82.3644 146° Southeast 384 442 12,300 -2,850 Descending Miami Center
Sun 01:07:22 PM 26.8122 -82.2978 145° Southeast 352 405 10,000 -1,950 Descending Miami Center
Sun 01:08:22 PM 26.7453 -82.2433 144° Southeast 308 354 8,400 -1,850 Descending Miami Center
Sun 01:09:22 PM 26.6783 -82.1917 145° Southeast 291 335 6,300 -2,050 Descending Miami Center
Sun 01:10:22 PM 26.6264 -82.1264 132° Southeast 286 329 4,300 -1,650 Descending Miami Center
Sun 01:11:22 PM 26.5808 -82.0547 125° Southeast 280 322 3,000 -650 Descending Miami Center
Sun 01:12:22 PM 26.5417 -81.9881 123° Southeast 268 308 3,000  Level Miami Center
Sun 01:13:22 PM 26.5042 -81.9239 123° Southeast 258 297 3,000 -150 Level Miami Center
Sun 01:14:22 PM 26.4786 -81.8808 124° Southeast 240 276 2,700 -350 Descending Miami Center
Sun 01:15:22 PM 26.4578 -81.8175 110° East 219 252 2,300 -400 Descending Miami Center
Sun 01:17:00 PM 26.5333 -81.7500 50° Northeast  Level FlightAware Approximate
Sun 01:24:00 PM 26.5362 -81.7552 50° Northeast  Level Estimated
Sun 01:25:00 PM 26.5333 -81.7500 50° Northeast  Level FlightAware Approximate

Login

Don't have an account? Register now (free) for customized features, flight alerts, and more!